• Join FlightAware (Why Join?)
  • Login
  • US Flag 
04:52AM EDT


 

Airport Tracker/Info


-or-


 

Live Flight TrackerFlight Track Log ✈ SWA706 ✈ 14-Sep-2013 ✈ KMDW - KSTL

Flight Track Log - Related Links

Times and Time Zones

All times are in EDT time to prevent confusion due to time zone crossing. See the SWA706 flight status page for this flight to view local times or setup timezone preferences in your user account.

Time Position Orientation Groundspeed Altitude Reporting Facility
EDT Latitude Longitude Course Direction KTS MPH feet Rate Location/Type
01:01PM 41.7833 -87.8167 191° South 210 242 3,400  Level Chicago TRACON
01:02PM 41.7214 -87.8547 205° Southwest 245 282 6,900 3,180 Climbing Chicago Center
01:03PM 41.6483 -87.8953 203° Southwest 278 320 10,600 3,540 Climbing Chicago Center
01:04PM 41.5481 -87.9517 203° Southwest 328 377 14,200 3,180 Climbing Chicago Center
01:05PM 41.4594 -88.0011 203° Southwest 341 392 17,200 2,460 Climbing Chicago Center
01:06PM 41.3239 -88.1696 191° South  Level Estimated
01:06PM 41.3792 -88.0447 202° Southwest 353 406 19,400  Level Chicago Center
01:07PM 41.2525 -88.0822 193° South 376 433 22,400 2,400 Climbing Chicago Center
01:08PM 41.1439 -88.0967 186° South 390 449 24,400 1,740 Climbing Chicago Center
01:09PM 41.0281 -88.1103 185° South 412 474 26,000 720 Climbing Chicago Center
01:10PM 40.9050 -88.1247 185° South 440 506 26,000  Level Chicago Center
01:11PM 40.7878 -88.1664 195° South 441 507 26,000  Level Chicago Center
01:12PM 40.6575 -88.2478 205° Southwest 433 498 26,000  Level Chicago Center
01:13PM 40.5483 -88.3128 204° Southwest 433 498 26,000  Level Chicago Center
01:14PM 40.4381 -88.3772 204° Southwest 433 498 26,000  Level Chicago Center
01:15PM 40.3292 -88.4428 205° Southwest 433 498 26,000  Level Chicago Center
01:17PM 40.2119 -88.5119 204° Southwest 433 498 26,000  Level Chicago Center
01:18PM 40.0997 -88.5786 204° Southwest 438 504 26,000  Level Chicago Center
01:19PM 39.9889 -88.6442 204° Southwest 437 503 26,000  Level Chicago Center
01:20PM 39.8769 -88.7092 204° Southwest 438 504 26,000  Level Chicago Center
01:20PM 39.7647 -88.7758 205° Southwest 438 504 26,000  Level Kansas City Center
01:22PM 39.6531 -88.8403 204° Southwest 437 503 26,000  Level Kansas City Center
01:23PM 39.5414 -88.9067 205° Southwest 439 505 26,000  Level Kansas City Center
01:24PM 39.4292 -88.9703 204° Southwest 439 505 26,000 -540 Level Kansas City Center
01:25PM 39.3133 -89.0372 204° Southwest 437 503 25,000 -2,040 Descending Kansas City Center
01:26PM 39.2039 -89.1003 204° Southwest 433 498 21,900 -2,520 Descending Kansas City Center
01:27PM 39.0975 -89.1686 206° Southwest 404 465 19,900 -2,040 Descending Kansas City Center
01:28PM 39.0614 -89.2994 250° West 360 414 17,700 -2,100 Descending Kansas City Center
01:29PM 39.0361 -89.4183 255° West 348 400 15,600 -2,220 Descending Kansas City Center
01:30PM 39.0078 -89.5439 254° West 343 395 13,200 -2,280 Descending Kansas City Center
01:31PM 38.9592 -89.6417 237° Southwest 331 381 11,000 -1,680 Descending Kansas City Center
01:32PM 38.8964 -89.7211 225° Southwest 326 375 9,800 -1,320 Descending Kansas City Center
01:33PM 38.8389 -89.7933 224° Southwest 299 344 8,300 -1,200 Descending Kansas City Center
01:34PM 38.7828 -89.8636 224° Southwest 286 329 7,400 -1,080 Descending Kansas City Center
01:35PM 38.7294 -89.9386 228° Southwest 284 327 6,100 -1,380 Descending Kansas City Center
01:36PM 38.6883 -90.0217 238° Southwest 280 322 4,600 -1,320 Descending Kansas City Center
01:37PM 38.6719 -90.1250 259° West 262 302 3,400 -600 Descending Kansas City Center
01:38PM 38.6767 -90.2019 275° West 230 265 3,400 -540 Level Kansas City Center
01:39PM 38.6964 -90.2633 292° West 206 237 2,300 -1,020 Descending Kansas City Center
01:40PM 38.7186 -90.3081 303° West 173 199 1,300 -840 Descending Kansas City Center
01:41PM 38.7389 -90.3492 302° West 153 176 600 -720 Descending Kansas City Center
01:43PM 38.7333 -90.3667 288° West  Level FlightAware Approximate